createdAt,value
2023-04-14T00:00:37.813Z,95715.66
2023-04-14T00:03:34.903Z,95711.72
2023-04-14T00:06:32.902Z,95718.34
2023-04-14T00:09:30.143Z,95712.03
2023-04-14T00:12:27.206Z,95717.88
2023-04-14T00:15:24.112Z,95716.00
2023-04-14T00:18:21.089Z,95726.88
2023-04-14T00:21:17.919Z,95727.41
2023-04-14T00:24:14.758Z,95735.06
2023-04-14T00:27:11.786Z,95739.84
2023-04-14T00:30:09.413Z,95741.94
2023-04-14T00:33:06.240Z,95734.00
2023-04-14T00:36:03.337Z,95734.03
2023-04-14T00:39:00.606Z,95749.34
2023-04-14T00:41:57.748Z,95745.91
2023-04-14T00:44:54.579Z,95747.78
2023-04-14T00:47:51.632Z,95751.19
2023-04-14T00:50:48.670Z,95743.81
2023-04-14T00:53:45.616Z,95746.97
2023-04-14T00:56:42.830Z,95752.78
2023-04-14T00:59:39.758Z,95746.72
2023-04-14T01:02:36.941Z,95749.59
2023-04-14T01:05:34.557Z,95740.59
2023-04-14T01:08:32.047Z,95739.56
2023-04-14T01:12:03.410Z,95744.03
2023-04-14T01:15:21.474Z,95739.53
2023-04-14T01:18:43.308Z,95744.25
2023-04-14T01:21:46.569Z,95737.41
2023-04-14T01:24:43.285Z,95733.44
2023-04-14T01:28:28.625Z,95731.34
2023-04-14T01:31:41.161Z,95726.31
2023-04-14T01:35:03.686Z,95734.16
2023-04-14T01:38:08.604Z,95741.03
2023-04-14T01:41:09.296Z,95745.31
2023-04-14T01:44:06.592Z,95743.19
2023-04-14T01:47:09.442Z,95745.50
2023-04-14T01:50:08.889Z,95749.78
2023-04-14T01:53:09.326Z,95750.53
2023-04-14T01:56:09.463Z,95745.22
2023-04-14T01:59:06.587Z,95745.22
2023-04-14T02:02:07.315Z,95759.25
2023-04-14T02:05:05.252Z,95753.72
2023-04-14T02:08:06.187Z,95766.16
2023-04-14T02:11:04.281Z,95762.94
2023-04-14T02:14:02.070Z,95764.56
2023-04-14T02:17:02.451Z,95767.66
2023-04-14T02:20:00.916Z,95760.25
2023-04-14T02:22:58.326Z,95764.75
2023-04-14T02:26:10.912Z,95758.69
2023-04-14T02:29:15.844Z,95750.78
2023-04-14T02:32:21.874Z,95742.28
2023-04-14T02:35:26.812Z,95744.13
2023-04-14T02:38:52.309Z,95737.53
2023-04-14T02:42:02.288Z,95733.78
2023-04-14T02:45:05.638Z,95732.72
2023-04-14T02:48:09.125Z,95736.47
2023-04-14T02:51:08.339Z,95737.50
2023-04-14T02:54:06.081Z,95734.59
2023-04-14T02:57:04.250Z,95738.53
2023-04-14T03:00:02.020Z,95740.06
2023-04-14T03:03:01.290Z,95732.66
2023-04-14T03:05:58.998Z,95741.63
2023-04-14T03:08:59.147Z,95740.63
2023-04-14T03:11:58.202Z,95738.22
2023-04-14T03:14:56.025Z,95736.34
2023-04-14T03:17:56.784Z,95737.69
2023-04-14T03:20:55.907Z,95732.38
2023-04-14T03:23:55.857Z,95736.91
2023-04-14T03:26:57.981Z,95735.34
2023-04-14T03:30:00.470Z,95736.09
2023-04-14T03:33:04.156Z,95736.28
2023-04-14T03:36:01.836Z,95731.31
2023-04-14T03:39:01.664Z,95732.81
2023-04-14T03:42:02.005Z,95737.63
2023-04-14T03:45:00.692Z,95740.72
2023-04-14T03:48:03.594Z,95746.94
2023-04-14T03:51:02.699Z,95745.59
2023-04-14T03:54:02.632Z,95737.94
2023-04-14T03:57:00.774Z,95731.78
2023-04-14T04:00:00.761Z,95729.78
2023-04-14T04:02:58.598Z,95726.78
2023-04-14T04:05:56.234Z,95720.97
2023-04-14T04:08:55.464Z,95722.00
2023-04-14T04:11:53.114Z,95710.38
2023-04-14T04:14:49.966Z,95707.72
2023-04-14T04:17:50.320Z,95704.56
2023-04-14T04:20:47.919Z,95700.56
2023-04-14T04:23:51.333Z,95703.22
2023-04-14T04:26:48.638Z,95706.94
2023-04-14T04:29:45.828Z,95715.06
2023-04-14T04:32:42.732Z,95728.63
2023-04-14T04:35:42.486Z,95727.88
2023-04-14T04:38:39.391Z,95750.66
2023-04-14T04:41:36.246Z,95749.78
2023-04-14T04:44:34.962Z,95743.44
2023-04-14T04:47:31.805Z,95736.66
2023-04-14T04:50:28.641Z,95726.22
2023-04-14T04:53:25.473Z,95742.38
2023-04-14T04:56:22.695Z,95748.16
2023-04-14T04:59:19.504Z,95753.38
2023-04-14T05:02:16.429Z,95749.28
2023-04-14T05:05:13.426Z,95753.44
2023-04-14T05:08:11.354Z,95745.84
2023-04-14T05:11:09.330Z,95738.66
2023-04-14T05:14:06.444Z,95741.28
2023-04-14T05:17:03.301Z,95742.34
2023-04-14T05:20:02.003Z,95729.63
2023-04-14T05:22:58.828Z,95734.44
2023-04-14T05:26:11.268Z,95724.28
2023-04-14T05:29:15.642Z,95726.84
2023-04-14T05:32:14.414Z,95725.50
2023-04-14T05:35:11.543Z,95725.25
2023-04-14T05:38:08.345Z,95726.06
2023-04-14T05:41:05.653Z,95723.53
2023-04-14T05:44:03.925Z,95718.22
2023-04-14T05:47:01.293Z,95729.72
2023-04-14T05:49:58.504Z,95732.34
2023-04-14T05:52:55.484Z,95723.03
2023-04-14T05:55:53.223Z,95723.22
2023-04-14T05:58:54.165Z,95725.91
2023-04-14T06:01:51.080Z,95728.72
2023-04-14T06:04:49.087Z,95732.97
2023-04-14T06:07:46.940Z,95733.22
2023-04-14T06:10:43.895Z,95730.47
2023-04-14T06:13:40.764Z,95743.34
2023-04-14T06:16:37.666Z,95740.19
2023-04-14T06:19:34.534Z,95747.25
2023-04-14T06:22:32.491Z,95733.59
2023-04-14T06:25:29.298Z,95742.22
2023-04-14T06:28:26.311Z,95737.31
2023-04-14T06:31:23.214Z,95739.63
2023-04-14T06:34:20.086Z,95739.59
2023-04-14T06:37:17.155Z,95737.81
2023-04-14T06:40:14.163Z,95751.13
2023-04-14T06:43:11.555Z,95744.88
2023-04-14T06:46:08.624Z,95753.28
2023-04-14T06:49:05.563Z,95756.13
2023-04-14T06:52:02.618Z,95743.03
2023-04-14T06:54:59.433Z,95747.34
2023-04-14T06:57:56.288Z,95735.91
2023-04-14T07:01:00.815Z,95734.38
2023-04-14T07:03:57.717Z,95739.69
2023-04-14T07:07:00.825Z,95731.94
2023-04-14T07:09:57.688Z,95721.41
2023-04-14T07:12:54.561Z,95720.84
2023-04-14T07:15:51.433Z,95717.59
2023-04-14T07:18:48.244Z,95716.59
2023-04-14T07:21:46.371Z,95713.84
2023-04-14T07:24:43.196Z,95716.22
2023-04-14T07:27:45.208Z,95720.50
2023-04-14T07:30:51.040Z,95714.28
2023-04-14T07:33:47.922Z,95725.13
2023-04-14T07:36:44.946Z,95728.22
2023-04-14T07:39:41.898Z,95735.59
2023-04-14T07:42:38.718Z,95728.84
2023-04-14T07:45:35.640Z,95734.63
2023-04-14T07:48:37.072Z,95735.66
2023-04-14T07:51:33.999Z,95728.38
2023-04-14T07:54:31.728Z,95722.16
2023-04-14T07:57:28.565Z,95737.91
2023-04-14T08:00:26.648Z,95727.22
2023-04-14T08:03:23.696Z,95723.59
2023-04-14T08:06:20.881Z,95719.38
2023-04-14T08:09:17.766Z,95715.69
2023-04-14T08:12:14.763Z,95719.66
2023-04-14T08:15:12.695Z,95718.41
2023-04-14T08:18:09.532Z,95723.16
2023-04-14T08:21:06.789Z,95727.75
2023-04-14T08:24:03.826Z,95717.66
2023-04-14T08:27:02.219Z,95719.28
2023-04-14T08:29:59.080Z,95707.13
2023-04-14T08:32:59.045Z,95701.19
2023-04-14T08:35:59.715Z,95702.00
2023-04-14T08:39:00.351Z,95705.16
2023-04-14T08:41:58.313Z,95712.88
2023-04-14T08:44:56.000Z,95701.50
2023-04-14T08:47:56.867Z,95697.28
2023-04-14T08:51:34.562Z,95693.09
2023-04-14T08:54:32.152Z,95695.78
2023-04-14T08:57:31.567Z,95698.59
2023-04-14T09:00:28.508Z,95692.16
2023-04-14T09:03:25.964Z,95684.47
2023-04-14T09:06:23.932Z,95682.53
2023-04-14T09:09:21.276Z,95687.59
2023-04-14T09:12:20.897Z,95692.41
2023-04-14T09:15:17.794Z,95688.28
2023-04-14T09:18:14.638Z,95696.69
2023-04-14T09:21:50.526Z,95699.38
2023-04-14T09:24:32.217Z,95683.97
2023-04-14T09:27:29.911Z,95678.00
2023-04-14T09:30:27.217Z,95687.28
2023-04-14T09:33:24.278Z,95688.19
2023-04-14T09:36:23.873Z,95703.72
2023-04-14T09:39:20.741Z,95703.47
2023-04-14T09:42:18.689Z,95709.59
2023-04-14T09:45:15.589Z,95702.38
2023-04-14T09:48:13.254Z,95702.38
2023-04-14T09:51:10.511Z,95690.25
2023-04-14T09:54:07.321Z,95698.81
2023-04-14T09:57:04.452Z,95710.84
2023-04-14T10:00:01.378Z,95714.31
2023-04-14T10:02:59.179Z,95700.16
2023-04-14T10:05:57.305Z,95706.63
2023-04-14T10:08:57.333Z,95704.69
2023-04-14T10:12:14.718Z,95702.59
2023-04-14T10:15:12.807Z,95697.50
2023-04-14T10:18:09.739Z,95709.34
2023-04-14T10:21:08.105Z,95715.25
2023-04-14T10:24:05.511Z,95721.38
2023-04-14T10:27:03.630Z,95717.06
2023-04-14T10:30:01.517Z,95714.75
2023-04-14T10:32:58.897Z,95716.16
2023-04-14T10:36:02.973Z,95706.38
2023-04-14T10:39:03.316Z,95722.97
2023-04-14T10:42:00.487Z,95728.88
2023-04-14T10:45:08.777Z,95711.47
2023-04-14T10:48:06.249Z,95722.16
2023-04-14T10:51:09.689Z,95726.72
2023-04-14T10:54:19.521Z,95723.88
2023-04-14T10:57:17.650Z,95715.78
2023-04-14T11:00:30.037Z,95736.47
2023-04-14T11:03:34.372Z,95752.84
2023-04-14T11:06:46.831Z,95734.59
2023-04-14T11:09:43.650Z,95734.47
2023-04-14T11:12:44.736Z,95733.78
2023-04-14T11:16:09.261Z,95722.75
2023-04-14T11:19:15.405Z,95721.47
2023-04-14T11:22:12.227Z,95721.84
2023-04-14T11:25:16.227Z,95712.38
2023-04-14T11:28:13.382Z,95699.41
2023-04-14T11:31:12.884Z,95694.16
2023-04-14T11:34:09.702Z,95696.50
2023-04-14T11:37:07.128Z,95688.38
2023-04-14T11:40:05.531Z,95683.94
2023-04-14T11:43:02.596Z,95683.56
2023-04-14T11:46:02.738Z,95682.56
2023-04-14T11:48:59.851Z,95676.72
2023-04-14T11:52:03.825Z,95658.53
2023-04-14T11:55:01.968Z,95654.44
2023-04-14T11:57:59.292Z,95646.81
2023-04-14T12:00:59.203Z,95641.56
2023-04-14T12:03:57.741Z,95639.22
2023-04-14T12:06:54.907Z,95639.47
2023-04-14T12:09:52.263Z,95636.53
2023-04-14T12:12:49.093Z,95630.13
2023-04-14T12:15:46.427Z,95621.03
2023-04-14T12:18:44.395Z,95609.44
2023-04-14T12:21:41.937Z,95628.75
2023-04-14T12:24:42.404Z,95617.69
2023-04-14T12:27:39.248Z,95615.72
2023-04-14T12:30:37.555Z,95621.66
2023-04-14T12:33:34.625Z,95610.38
2023-04-14T12:36:47.787Z,95621.72
2023-04-14T12:40:01.068Z,95610.00
2023-04-14T12:42:58.043Z,95600.97
2023-04-14T12:45:55.415Z,95589.09
2023-04-14T12:48:52.346Z,95586.47
2023-04-14T12:51:49.167Z,95584.44
2023-04-14T12:54:52.273Z,95586.75
2023-04-14T12:57:53.699Z,95586.75
2023-04-14T13:00:51.110Z,95578.94
2023-04-14T13:03:55.773Z,95570.53
2023-04-14T13:06:53.016Z,95552.78
2023-04-14T13:09:51.699Z,95557.84
2023-04-14T13:12:48.834Z,95553.81
2023-04-14T13:16:12.950Z,95562.41
2023-04-14T13:19:02.685Z,95573.44
2023-04-14T13:21:59.696Z,95565.50
2023-04-14T13:24:59.825Z,95554.56
2023-04-14T13:27:56.640Z,95542.91
2023-04-14T13:30:56.900Z,95545.56
2023-04-14T13:33:53.713Z,95539.25
2023-04-14T13:36:50.641Z,95547.72
2023-04-14T13:39:47.553Z,95541.91
2023-04-14T13:42:45.145Z,95533.00
2023-04-14T13:45:42.047Z,95545.75
2023-04-14T13:48:38.885Z,95535.97
2023-04-14T13:51:35.744Z,95539.66
2023-04-14T13:54:32.660Z,95532.50
2023-04-14T13:57:29.487Z,95537.97
2023-04-14T14:00:26.353Z,95567.53
2023-04-14T14:03:23.312Z,95575.31
2023-04-14T14:06:20.415Z,95580.19
2023-04-14T14:09:17.227Z,95596.78
2023-04-14T14:12:14.737Z,95594.25
2023-04-14T14:15:12.377Z,95598.66
2023-04-14T14:18:09.262Z,95586.59
2023-04-14T14:21:06.431Z,95588.47
2023-04-14T14:24:03.810Z,95587.69
2023-04-14T14:27:01.982Z,95588.00
2023-04-14T14:29:58.933Z,95585.00
2023-04-14T14:32:55.980Z,95595.00
2023-04-14T14:35:52.863Z,95581.72
2023-04-14T14:38:49.684Z,95588.91
2023-04-14T14:41:46.566Z,95583.31
2023-04-14T14:44:43.388Z,95580.44
2023-04-14T14:47:40.287Z,95571.38
2023-04-14T14:50:37.130Z,95556.56
2023-04-14T14:53:34.014Z,95553.81
2023-04-14T14:56:32.776Z,95565.03
2023-04-14T14:59:29.592Z,95553.19
2023-04-14T15:02:27.323Z,95542.34
2023-04-14T15:05:24.371Z,95554.22
2023-04-14T15:08:21.558Z,95544.75
2023-04-14T15:11:18.963Z,95544.69
2023-04-14T15:14:15.905Z,95546.66
2023-04-14T15:17:12.725Z,95543.63
2023-04-14T15:20:10.320Z,95546.31
2023-04-14T15:23:07.245Z,95547.91
2023-04-14T15:26:04.070Z,95544.50
2023-04-14T15:29:02.325Z,95550.50
2023-04-14T15:32:00.000Z,95552.09
2023-04-14T15:34:57.241Z,95555.44
2023-04-14T15:37:54.082Z,95548.75
2023-04-14T15:40:53.129Z,95551.09
2023-04-14T15:43:50.347Z,95555.94
2023-04-14T15:46:47.187Z,95555.03
2023-04-14T15:49:44.578Z,95553.72
2023-04-14T15:52:46.612Z,95553.84
2023-04-14T15:55:44.403Z,95550.41
2023-04-14T15:58:41.241Z,95551.59
2023-04-14T16:01:38.205Z,95556.56
2023-04-14T16:04:35.327Z,95552.44
2023-04-14T16:07:34.893Z,95553.53
2023-04-14T16:10:31.846Z,95562.25
2023-04-14T16:13:28.700Z,95557.94
2023-04-14T16:16:25.605Z,95567.47
2023-04-14T16:19:23.351Z,95556.44
2023-04-14T16:22:20.416Z,95568.06
2023-04-14T16:25:17.272Z,95572.25
2023-04-14T16:28:14.090Z,95567.19
2023-04-14T16:31:10.982Z,95564.50
2023-04-14T16:34:08.003Z,95566.16
2023-04-14T16:37:04.822Z,95560.56
2023-04-14T16:40:01.660Z,95566.25
2023-04-14T16:42:58.554Z,95561.22
2023-04-14T16:46:05.091Z,95559.06
2023-04-14T16:49:02.310Z,95567.41
2023-04-14T16:52:00.364Z,95566.34
2023-04-14T16:54:58.325Z,95563.25
2023-04-14T16:57:55.604Z,95563.31
2023-04-14T17:00:52.854Z,95561.63
2023-04-14T17:03:49.797Z,95558.06
2023-04-14T17:06:47.003Z,95566.94
2023-04-14T17:09:44.151Z,95564.75
2023-04-14T17:12:42.956Z,95558.34
2023-04-14T17:15:39.819Z,95568.06
2023-04-14T17:18:38.101Z,95562.25
2023-04-14T17:21:35.014Z,95562.53
2023-04-14T17:24:31.968Z,95569.47
2023-04-14T17:27:29.163Z,95571.19
2023-04-14T17:30:27.175Z,95568.53
2023-04-14T17:33:27.177Z,95578.56
2023-04-14T17:36:24.168Z,95583.41
2023-04-14T17:39:26.457Z,95586.25
2023-04-14T17:42:25.103Z,95591.41
2023-04-14T17:45:25.465Z,95600.50
2023-04-14T17:48:22.272Z,95603.94
2023-04-14T17:51:19.412Z,95610.66
2023-04-14T17:54:16.572Z,95613.25
2023-04-14T17:57:13.795Z,95620.06
2023-04-14T18:00:11.347Z,95618.81
2023-04-14T18:03:08.292Z,95605.81
2023-04-14T18:06:05.761Z,95606.56
2023-04-14T18:09:03.972Z,95612.25
2023-04-14T18:12:00.815Z,95614.88
2023-04-14T18:14:57.623Z,95614.47
2023-04-14T18:17:54.487Z,95608.06
2023-04-14T18:20:52.083Z,95606.66
2023-04-14T18:24:47.944Z,95608.97
2023-04-14T18:30:08.170Z,95615.13
2023-04-14T18:33:05.099Z,95612.81
2023-04-14T18:36:02.360Z,95612.44
2023-04-14T18:39:00.287Z,95611.13
2023-04-14T18:41:57.890Z,95611.31
2023-04-14T18:44:54.711Z,95612.97
2023-04-14T18:47:51.543Z,95611.63
2023-04-14T18:50:56.647Z,95614.19
2023-04-14T18:53:53.514Z,95615.38
2023-04-14T18:56:50.686Z,95610.13
2023-04-14T18:59:47.793Z,95609.19
2023-04-14T19:02:44.680Z,95607.88
2023-04-14T19:05:41.657Z,95601.91
2023-04-14T19:08:38.521Z,95613.22
2023-04-14T19:11:37.957Z,95614.41
2023-04-14T19:14:34.773Z,95617.19
2023-04-14T19:17:34.298Z,95619.03
2023-04-14T19:20:31.622Z,95623.50
2023-04-14T19:23:29.294Z,95626.50
2023-04-14T19:26:26.134Z,95628.19
2023-04-14T19:29:23.124Z,95628.50
2023-04-14T19:32:19.985Z,95629.06
2023-04-14T19:35:17.148Z,95629.47
2023-04-14T19:38:14.595Z,95625.03
2023-04-14T19:41:11.775Z,95621.59
2023-04-14T19:44:08.595Z,95613.13
2023-04-14T19:47:06.116Z,95619.81
2023-04-14T19:50:04.257Z,95627.78
2023-04-14T19:53:01.084Z,95619.38
2023-04-14T19:55:58.564Z,95622.75
2023-04-14T19:58:55.426Z,95627.03
2023-04-14T20:01:52.281Z,95616.56
2023-04-14T20:04:49.998Z,95609.41
2023-04-14T20:07:46.888Z,95608.28
2023-04-14T20:10:43.758Z,95610.69
2023-04-14T20:13:41.129Z,95614.03
2023-04-14T20:16:38.640Z,95611.25
2023-04-14T20:19:35.538Z,95618.97
2023-04-14T20:22:33.600Z,95626.75
2023-04-14T20:25:30.968Z,95615.22
2023-04-14T20:28:27.789Z,95614.25
2023-04-14T20:31:25.508Z,95607.34
2023-04-14T20:34:22.411Z,95607.94
2023-04-14T20:37:19.273Z,95608.06
2023-04-14T20:40:18.153Z,95599.00
2023-04-14T20:43:14.994Z,95596.94
2023-04-14T20:46:11.843Z,95602.53
2023-04-14T20:49:09.674Z,95597.44
2023-04-14T20:52:07.530Z,95600.84
2023-04-14T20:55:05.404Z,95595.25
2023-04-14T20:58:02.385Z,95590.22
2023-04-14T21:00:59.233Z,95591.81
2023-04-14T21:03:56.350Z,95584.44
2023-04-14T21:06:53.916Z,95591.63
2023-04-14T21:09:50.737Z,95595.53
2023-04-14T21:15:00.370Z,95594.97
2023-04-14T21:16:04.611Z,95591.53
2023-04-14T21:19:06.471Z,95585.63
2023-04-14T21:22:03.701Z,95592.00
2023-04-14T21:25:00.664Z,95590.84
2023-04-14T21:27:57.639Z,95599.94
2023-04-14T21:31:01.378Z,95589.56
2023-04-14T21:33:58.361Z,95590.47
2023-04-14T21:36:57.435Z,95583.84
2023-04-14T21:39:55.318Z,95586.41
2023-04-14T21:42:52.916Z,95579.78
2023-04-14T21:45:50.289Z,95583.06
2023-04-14T21:48:47.604Z,95584.66
2023-04-14T21:51:44.996Z,95586.66
2023-04-14T21:54:44.199Z,95585.09
2023-04-14T21:57:48.128Z,95587.88
2023-04-14T22:00:46.361Z,95585.88
2023-04-14T22:03:43.387Z,95588.44
2023-04-14T22:06:40.416Z,95579.66
2023-04-14T22:09:37.269Z,95574.13
2023-04-14T22:12:37.766Z,95572.78
2023-04-14T22:15:34.679Z,95568.44
2023-04-14T22:18:31.984Z,95576.56
2023-04-14T22:21:28.938Z,95571.25
2023-04-14T22:24:25.765Z,95577.84
2023-04-14T22:27:23.150Z,95574.16
2023-04-14T22:30:20.655Z,95572.84
2023-04-14T22:33:17.473Z,95575.53
2023-04-14T22:36:14.360Z,95588.75
2023-04-14T22:39:11.220Z,95586.94
2023-04-14T22:42:08.441Z,95580.84
2023-04-14T22:45:07.544Z,95578.72
2023-04-14T22:48:07.013Z,95580.44
2023-04-14T22:51:03.918Z,95585.22
2023-04-14T22:54:01.478Z,95572.84
2023-04-14T22:56:58.305Z,95578.19
2023-04-14T22:59:55.212Z,95572.06
2023-04-14T23:02:52.885Z,95572.91
2023-04-14T23:05:51.749Z,95572.41
2023-04-14T23:08:50.338Z,95579.56
2023-04-14T23:11:47.319Z,95571.72
2023-04-14T23:14:44.159Z,95573.53
2023-04-14T23:17:41.147Z,95574.16
2023-04-14T23:20:38.615Z,95584.69
2023-04-14T23:23:35.791Z,95587.38
2023-04-14T23:26:32.622Z,95583.41
2023-04-14T23:29:29.434Z,95581.56
2023-04-14T23:32:26.651Z,95572.66
2023-04-14T23:35:23.580Z,95561.28
2023-04-14T23:38:20.643Z,95567.97
2023-04-14T23:41:18.389Z,95567.41
2023-04-14T23:44:15.222Z,95565.66
2023-04-14T23:47:12.154Z,95552.91
2023-04-14T23:50:09.656Z,95555.44
2023-04-14T23:53:06.545Z,95550.00
2023-04-14T23:56:04.303Z,95544.63
2023-04-14T23:59:01.879Z,95543.50
